sensor_id;sensor_type;location;lat;lon;timestamp;pressure;altitude;pressure_sealevel;temperature;humidity
53659;BME280;41524;35.624;139.698;2023-01-29T00:00:12;101342.00;;;11.40;18.65
53659;BME280;41524;35.624;139.698;2023-01-29T00:05:16;101344.00;;;17.92;15.61
53659;BME280;41524;35.624;139.698;2023-01-29T00:10:11;101346.00;;;13.28;17.42
53659;BME280;41524;35.624;139.698;2023-01-29T00:15:22;101350.00;;;6.81;21.58
53659;BME280;41524;35.624;139.698;2023-01-29T00:20:15;101329.00;;;13.48;17.21
53659;BME280;41524;35.624;139.698;2023-01-29T00:25:10;101334.00;;;9.76;18.59
53659;BME280;41524;35.624;139.698;2023-01-29T00:30:21;101321.00;;;16.53;14.66
53659;BME280;41524;35.624;139.698;2023-01-29T00:35:14;101329.00;;;8.19;18.90
53659;BME280;41524;35.624;139.698;2023-01-29T00:40:16;101319.00;;;18.70;14.37
53659;BME280;41524;35.624;139.698;2023-01-29T00:45:21;101330.00;;;4.82;21.13
53659;BME280;41524;35.624;139.698;2023-01-29T00:50:15;101334.00;;;3.53;23.96
53659;BME280;41524;35.624;139.698;2023-01-29T00:55:19;101334.00;;;6.30;23.56
53659;BME280;41524;35.624;139.698;2023-01-29T01:00:14;101341.00;;;1.85;26.90
53659;BME280;41524;35.624;139.698;2023-01-29T01:05:13;101334.00;;;6.42;24.82
53659;BME280;41524;35.624;139.698;2023-01-29T01:10:13;101335.00;;;4.38;24.39
53659;BME280;41524;35.624;139.698;2023-01-29T01:15:21;101341.00;;;5.30;23.11
53659;BME280;41524;35.624;139.698;2023-01-29T01:20:22;101339.00;;;5.37;23.45
53659;BME280;41524;35.624;139.698;2023-01-29T01:25:11;101334.00;;;6.42;22.07
53659;BME280;41524;35.624;139.698;2023-01-29T01:30:16;101330.00;;;5.30;23.22
53659;BME280;41524;35.624;139.698;2023-01-29T01:35:11;101322.00;;;6.41;21.82
53659;BME280;41524;35.624;139.698;2023-01-29T01:40:15;101313.00;;;6.38;23.03
53659;BME280;41524;35.624;139.698;2023-01-29T01:45:26;101297.00;;;6.64;21.86
53659;BME280;41524;35.624;139.698;2023-01-29T01:50:14;101290.00;;;6.86;21.71
53659;BME280;41524;35.624;139.698;2023-01-29T01:55:13;101280.00;;;7.24;22.09
53659;BME280;41524;35.624;139.698;2023-01-29T02:00:15;101268.00;;;7.72;21.52
53659;BME280;41524;35.624;139.698;2023-01-29T02:05:21;101255.00;;;9.03;20.47
53659;BME280;41524;35.624;139.698;2023-01-29T02:10:13;101239.00;;;8.59;20.45
53659;BME280;41524;35.624;139.698;2023-01-29T02:15:16;101241.00;;;7.36;21.42
53659;BME280;41524;35.624;139.698;2023-01-29T02:20:17;101236.00;;;8.08;20.56
53659;BME280;41524;35.624;139.698;2023-01-29T02:25:31;101219.00;;;7.86;20.58
53659;BME280;41524;35.624;139.698;2023-01-29T02:30:18;101208.00;;;7.50;22.07
53659;BME280;41524;35.624;139.698;2023-01-29T02:35:20;101191.00;;;9.03;20.16
53659;BME280;41524;35.624;139.698;2023-01-29T02:40:29;101189.00;;;8.14;19.71
53659;BME280;41524;35.624;139.698;2023-01-29T02:45:14;101185.00;;;5.12;23.71
53659;BME280;41524;35.624;139.698;2023-01-29T02:50:27;101168.00;;;8.85;20.74
53659;BME280;41524;35.624;139.698;2023-01-29T02:55:20;101156.00;;;9.27;19.76
53659;BME280;41524;35.624;139.698;2023-01-29T03:00:21;101146.00;;;8.69;21.01
53659;BME280;41524;35.624;139.698;2023-01-29T03:05:20;101142.00;;;9.64;20.11
53659;BME280;41524;35.624;139.698;2023-01-29T03:10:15;101135.00;;;7.63;21.59
53659;BME280;41524;35.624;139.698;2023-01-29T03:15:15;101126.00;;;7.07;22.27
53659;BME280;41524;35.624;139.698;2023-01-29T03:20:17;101117.00;;;9.98;19.68
53659;BME280;41524;35.624;139.698;2023-01-29T03:25:12;101110.00;;;8.54;20.86
53659;BME280;41524;35.624;139.698;2023-01-29T03:30:14;101107.00;;;8.98;20.39
53659;BME280;41524;35.624;139.698;2023-01-29T03:35:18;101098.00;;;9.07;20.75
53659;BME280;41524;35.624;139.698;2023-01-29T03:40:14;101093.00;;;8.00;21.29
53659;BME280;41524;35.624;139.698;2023-01-29T03:45:20;101087.00;;;9.18;20.76
53659;BME280;41524;35.624;139.698;2023-01-29T03:50:33;101081.00;;;7.65;22.67
53659;BME280;41524;35.624;139.698;2023-01-29T03:55:15;101070.00;;;9.05;25.04
53659;BME280;41524;35.624;139.698;2023-01-29T04:00:14;101054.00;;;9.82;25.98
53659;BME280;41524;35.624;139.698;2023-01-29T04:05:15;101038.00;;;9.45;24.40
53659;BME280;41524;35.624;139.698;2023-01-29T04:10:13;101051.00;;;7.28;24.23
53659;BME280;41524;35.624;139.698;2023-01-29T04:15:14;101034.00;;;7.93;26.65
53659;BME280;41524;35.624;139.698;2023-01-29T04:20:16;101038.00;;;7.04;26.64
53659;BME280;41524;35.624;139.698;2023-01-29T04:25:13;101020.00;;;8.19;25.49
53659;BME280;41524;35.624;139.698;2023-01-29T04:30:24;101020.00;;;7.16;26.06
53659;BME280;41524;35.624;139.698;2023-01-29T04:35:25;101011.00;;;7.41;25.42
53659;BME280;41524;35.624;139.698;2023-01-29T04:40:18;101010.00;;;6.66;27.13
53659;BME280;41524;35.624;139.698;2023-01-29T04:45:17;101014.00;;;6.99;28.13
53659;BME280;41524;35.624;139.698;2023-01-29T04:50:16;101011.00;;;7.49;28.18
53659;BME280;41524;35.624;139.698;2023-01-29T04:55:18;101016.00;;;7.59;28.08
53659;BME280;41524;35.624;139.698;2023-01-29T05:00:15;101016.00;;;7.13;27.73
53659;BME280;41524;35.624;139.698;2023-01-29T05:05:13;101011.00;;;9.23;26.32
53659;BME280;41524;35.624;139.698;2023-01-29T05:10:19;101024.00;;;6.06;27.98
53659;BME280;41524;35.624;139.698;2023-01-29T05:15:14;101020.00;;;6.62;28.11
53659;BME280;41524;35.624;139.698;2023-01-29T05:20:12;101014.00;;;5.44;30.09
53659;BME280;41524;35.624;139.698;2023-01-29T05:25:21;101020.00;;;5.55;29.14
53659;BME280;41524;35.624;139.698;2023-01-29T05:30:12;101019.00;;;6.49;29.37
53659;BME280;41524;35.624;139.698;2023-01-29T05:35:16;101027.00;;;5.28;30.21
53659;BME280;41524;35.624;139.698;2023-01-29T05:40:11;101025.00;;;5.62;30.96
53659;BME280;41524;35.624;139.698;2023-01-29T05:45:11;101027.00;;;4.87;31.14
53659;BME280;41524;35.624;139.698;2023-01-29T05:50:21;101023.00;;;5.13;30.82
53659;BME280;41524;35.624;139.698;2023-01-29T05:55:21;101035.00;;;4.20;32.38
53659;BME280;41524;35.624;139.698;2023-01-29T06:00:16;101028.00;;;4.66;32.49
53659;BME280;41524;35.624;139.698;2023-01-29T06:05:16;101025.00;;;4.89;32.48
53659;BME280;41524;35.624;139.698;2023-01-29T06:10:17;101029.00;;;4.83;32.86
53659;BME280;41524;35.624;139.698;2023-01-29T06:15:18;101028.00;;;5.19;32.50
53659;BME280;41524;35.624;139.698;2023-01-29T06:20:16;101029.00;;;6.06;30.47
53659;BME280;41524;35.624;139.698;2023-01-29T06:25:12;101034.00;;;6.23;30.57
53659;BME280;41524;35.624;139.698;2023-01-29T06:30:13;101042.00;;;5.04;32.73
53659;BME280;41524;35.624;139.698;2023-01-29T06:35:10;101040.00;;;5.14;32.77
53659;BME280;41524;35.624;139.698;2023-01-29T06:40:12;101045.00;;;5.52;31.42
53659;BME280;41524;35.624;139.698;2023-01-29T06:45:12;101043.00;;;4.89;33.44
53659;BME280;41524;35.624;139.698;2023-01-29T06:50:16;101039.00;;;5.90;32.50
53659;BME280;41524;35.624;139.698;2023-01-29T06:55:12;101036.00;;;13.05;24.12
53659;BME280;41524;35.624;139.698;2023-01-29T07:00:13;101033.00;;;17.10;18.66
53659;BME280;41524;35.624;139.698;2023-01-29T07:05:11;101046.00;;;13.08;20.77
53659;BME280;41524;35.624;139.698;2023-01-29T07:10:11;101049.00;;;7.90;26.43
53659;BME280;41524;35.624;139.698;2023-01-29T07:15:17;101060.00;;;5.48;28.29
53659;BME280;41524;35.624;139.698;2023-01-29T07:20:11;101063.00;;;6.27;28.65
53659;BME280;41524;35.624;139.698;2023-01-29T07:25:12;101059.00;;;7.42;28.53
53659;BME280;41524;35.624;139.698;2023-01-29T07:30:12;101065.00;;;5.69;29.85
53659;BME280;41524;35.624;139.698;2023-01-29T07:35:16;101072.00;;;5.15;30.20
53659;BME280;41524;35.624;139.698;2023-01-29T07:40:16;101077.00;;;5.14;30.18
53659;BME280;41524;35.624;139.698;2023-01-29T07:45:11;101075.00;;;6.49;30.28
53659;BME280;41524;35.624;139.698;2023-01-29T07:50:12;101072.00;;;4.86;30.64
53659;BME280;41524;35.624;139.698;2023-01-29T07:55:17;101071.00;;;5.37;29.95
53659;BME280;41524;35.624;139.698;2023-01-29T08:00:12;101076.00;;;5.53;29.74
53659;BME280;41524;35.624;139.698;2023-01-29T08:05:16;101078.00;;;4.99;30.19
53659;BME280;41524;35.624;139.698;2023-01-29T08:10:16;101075.00;;;3.68;32.03
53659;BME280;41524;35.624;139.698;2023-01-29T08:15:16;101077.00;;;6.42;28.95
53659;BME280;41524;35.624;139.698;2023-01-29T08:20:16;101080.00;;;5.33;30.44
53659;BME280;41524;35.624;139.698;2023-01-29T08:25:11;101088.00;;;5.71;29.79
53659;BME280;41524;35.624;139.698;2023-01-29T08:30:17;101094.00;;;5.13;30.01
53659;BME280;41524;35.624;139.698;2023-01-29T08:35:23;101098.00;;;5.38;30.41
53659;BME280;41524;35.624;139.698;2023-01-29T08:40:11;101102.00;;;5.72;31.04
53659;BME280;41524;35.624;139.698;2023-01-29T08:45:13;101104.00;;;5.78;30.81
53659;BME280;41524;35.624;139.698;2023-01-29T08:50:11;101104.00;;;5.60;30.42
53659;BME280;41524;35.624;139.698;2023-01-29T08:55:18;101105.00;;;5.79;30.53
53659;BME280;41524;35.624;139.698;2023-01-29T09:00:13;101108.00;;;5.66;30.81
53659;BME280;41524;35.624;139.698;2023-01-29T09:05:20;101115.00;;;5.52;31.17
53659;BME280;41524;35.624;139.698;2023-01-29T09:10:11;101125.00;;;5.35;32.12
53659;BME280;41524;35.624;139.698;2023-01-29T09:15:11;101127.00;;;5.31;31.70
53659;BME280;41524;35.624;139.698;2023-01-29T09:20:16;101136.00;;;5.01;32.86
53659;BME280;41524;35.624;139.698;2023-01-29T09:25:10;101131.00;;;5.53;32.15
53659;BME280;41524;35.624;139.698;2023-01-29T09:30:11;101131.00;;;5.15;32.53
53659;BME280;41524;35.624;139.698;2023-01-29T09:35:11;101134.00;;;5.82;31.82
53659;BME280;41524;35.624;139.698;2023-01-29T09:40:23;101138.00;;;5.76;32.87
53659;BME280;41524;35.624;139.698;2023-01-29T09:45:15;101141.00;;;4.60;35.54
53659;BME280;41524;35.624;139.698;2023-01-29T09:50:28;101137.00;;;5.40;34.10
53659;BME280;41524;35.624;139.698;2023-01-29T09:55:23;101138.00;;;5.52;33.38
53659;BME280;41524;35.624;139.698;2023-01-29T10:00:17;101138.00;;;5.62;32.79
53659;BME280;41524;35.624;139.698;2023-01-29T10:05:31;101138.00;;;5.39;33.08
53659;BME280;41524;35.624;139.698;2023-01-29T10:10:24;101138.00;;;5.27;33.47
53659;BME280;41524;35.624;139.698;2023-01-29T10:15:21;101138.00;;;4.86;34.16
53659;BME280;41524;35.624;139.698;2023-01-29T10:20:27;101142.00;;;4.81;34.71
53659;BME280;41524;35.624;139.698;2023-01-29T10:25:12;101138.00;;;4.71;34.93
53659;BME280;41524;35.624;139.698;2023-01-29T10:30:25;101140.00;;;5.64;34.02
53659;BME280;41524;35.624;139.698;2023-01-29T10:35:21;101143.00;;;4.56;36.06
53659;BME280;41524;35.624;139.698;2023-01-29T10:40:21;101141.00;;;5.01;34.91
53659;BME280;41524;35.624;139.698;2023-01-29T10:45:20;101139.00;;;4.60;35.98
53659;BME280;41524;35.624;139.698;2023-01-29T10:50:17;101135.00;;;4.30;37.14
53659;BME280;41524;35.624;139.698;2023-01-29T10:55:29;101138.00;;;4.96;36.09
53659;BME280;41524;35.624;139.698;2023-01-29T11:00:20;101140.00;;;5.04;36.41
53659;BME280;41524;35.624;139.698;2023-01-29T11:05:24;101131.00;;;5.25;36.34
53659;BME280;41524;35.624;139.698;2023-01-29T11:10:23;101126.00;;;4.83;37.02
53659;BME280;41524;35.624;139.698;2023-01-29T11:15:25;101128.00;;;4.78;37.54
53659;BME280;41524;35.624;139.698;2023-01-29T11:20:27;101130.00;;;4.82;37.56
53659;BME280;41524;35.624;139.698;2023-01-29T11:25:17;101127.00;;;4.23;38.71
53659;BME280;41524;35.624;139.698;2023-01-29T11:30:25;101122.00;;;5.18;37.73
53659;BME280;41524;35.624;139.698;2023-01-29T11:35:22;101116.00;;;4.69;38.89
53659;BME280;41524;35.624;139.698;2023-01-29T11:40:51;101118.00;;;5.42;37.63
53659;BME280;41524;35.624;139.698;2023-01-29T11:45:25;101119.00;;;4.50;39.27
53659;BME280;41524;35.624;139.698;2023-01-29T11:55:19;101114.00;;;4.46;39.64
53659;BME280;41524;35.624;139.698;2023-01-29T12:00:19;101109.00;;;4.16;40.38
53659;BME280;41524;35.624;139.698;2023-01-29T12:05:23;101105.00;;;4.50;40.37
53659;BME280;41524;35.624;139.698;2023-01-29T12:10:37;101103.00;;;4.14;41.16
53659;BME280;41524;35.624;139.698;2023-01-29T12:15:24;101104.00;;;4.73;40.66
53659;BME280;41524;35.624;139.698;2023-01-29T12:20:14;101098.00;;;3.99;42.02
53659;BME280;41524;35.624;139.698;2023-01-29T12:25:22;101093.00;;;3.85;42.11
53659;BME280;41524;35.624;139.698;2023-01-29T12:30:16;101085.00;;;4.27;41.70
53659;BME280;41524;35.624;139.698;2023-01-29T12:35:17;101076.00;;;4.39;41.67
53659;BME280;41524;35.624;139.698;2023-01-29T12:40:13;101074.00;;;4.50;41.96
53659;BME280;41524;35.624;139.698;2023-01-29T12:45:18;101069.00;;;4.37;42.19
53659;BME280;41524;35.624;139.698;2023-01-29T12:50:17;101066.00;;;4.50;41.84
53659;BME280;41524;35.624;139.698;2023-01-29T12:55:17;101063.00;;;3.97;42.81
53659;BME280;41524;35.624;139.698;2023-01-29T13:00:24;101064.00;;;4.34;42.30
53659;BME280;41524;35.624;139.698;2023-01-29T13:05:21;101063.00;;;4.62;42.84
53659;BME280;41524;35.624;139.698;2023-01-29T13:10:14;101055.00;;;4.00;44.29
53659;BME280;41524;35.624;139.698;2023-01-29T13:15:21;101054.00;;;4.16;43.99
53659;BME280;41524;35.624;139.698;2023-01-29T13:20:15;101057.00;;;3.45;45.20
53659;BME280;41524;35.624;139.698;2023-01-29T13:25:17;101045.00;;;3.65;44.83
53659;BME280;41524;35.624;139.698;2023-01-29T13:30:29;101038.00;;;3.71;44.51
53659;BME280;41524;35.624;139.698;2023-01-29T13:35:19;101030.00;;;3.86;44.91
53659;BME280;41524;35.624;139.698;2023-01-29T13:40:29;101027.00;;;3.78;44.94
53659;BME280;41524;35.624;139.698;2023-01-29T13:45:20;101022.00;;;3.85;46.11
53659;BME280;41524;35.624;139.698;2023-01-29T13:50:25;101020.00;;;3.62;46.32
53659;BME280;41524;35.624;139.698;2023-01-29T13:55:23;101015.00;;;3.45;46.45
53659;BME280;41524;35.624;139.698;2023-01-29T14:00:48;101018.00;;;3.23;46.96
53659;BME280;41524;35.624;139.698;2023-01-29T14:05:55;101013.00;;;3.76;45.81
53659;BME280;41524;35.624;139.698;2023-01-29T14:10:17;101013.00;;;4.26;44.60
53659;BME280;41524;35.624;139.698;2023-01-29T14:15:21;101004.00;;;4.09;44.21
53659;BME280;41524;35.624;139.698;2023-01-29T14:20:20;101007.00;;;3.64;44.62
53659;BME280;41524;35.624;139.698;2023-01-29T14:25:18;101006.00;;;3.48;44.69
53659;BME280;41524;35.624;139.698;2023-01-29T14:30:21;101003.00;;;3.06;45.99
53659;BME280;41524;35.624;139.698;2023-01-29T14:35:18;101000.00;;;2.98;45.84
53659;BME280;41524;35.624;139.698;2023-01-29T14:40:21;101000.00;;;2.83;45.89
53659;BME280;41524;35.624;139.698;2023-01-29T14:45:25;101006.00;;;2.33;45.86
53659;BME280;41524;35.624;139.698;2023-01-29T14:50:49;101009.00;;;2.74;45.31
53659;BME280;41524;35.624;139.698;2023-01-29T14:55:21;101002.00;;;2.85;44.97
53659;BME280;41524;35.624;139.698;2023-01-29T15:00:21;100998.00;;;3.08;44.93
53659;BME280;41524;35.624;139.698;2023-01-29T15:05:19;100996.00;;;3.06;44.62
53659;BME280;41524;35.624;139.698;2023-01-29T15:10:19;100990.00;;;2.74;44.88
53659;BME280;41524;35.624;139.698;2023-01-29T15:15:17;100991.00;;;2.36;45.66
53659;BME280;41524;35.624;139.698;2023-01-29T15:20:43;100986.00;;;2.51;45.48
53659;BME280;41524;35.624;139.698;2023-01-29T15:25:20;100986.00;;;2.54;45.47
53659;BME280;41524;35.624;139.698;2023-01-29T15:30:17;100983.00;;;2.68;45.32
53659;BME280;41524;35.624;139.698;2023-01-29T15:35:27;100984.00;;;2.55;45.12
53659;BME280;41524;35.624;139.698;2023-01-29T15:40:15;100978.00;;;2.76;44.89
53659;BME280;41524;35.624;139.698;2023-01-29T15:45:24;100990.00;;;2.44;45.31
53659;BME280;41524;35.624;139.698;2023-01-29T15:50:14;100986.00;;;2.50;45.45
53659;BME280;41524;35.624;139.698;2023-01-29T15:55:13;100981.00;;;2.39;45.71
53659;BME280;41524;35.624;139.698;2023-01-29T16:00:22;100976.00;;;3.29;44.28
53659;BME280;41524;35.624;139.698;2023-01-29T16:05:15;100992.00;;;1.26;46.84
53659;BME280;41524;35.624;139.698;2023-01-29T16:10:17;100983.00;;;2.13;45.77
53659;BME280;41524;35.624;139.698;2023-01-29T16:15:20;100990.00;;;1.54;47.20
53659;BME280;41524;35.624;139.698;2023-01-29T16:20:39;100989.00;;;1.47;46.67
53659;BME280;41524;35.624;139.698;2023-01-29T16:25:13;100987.00;;;1.79;45.76
53659;BME280;41524;35.624;139.698;2023-01-29T16:35:16;100996.00;;;1.36;46.30
53659;BME280;41524;35.624;139.698;2023-01-29T16:40:24;101001.00;;;1.14;46.57
53659;BME280;41524;35.624;139.698;2023-01-29T16:45:27;101001.00;;;0.32;47.59
53659;BME280;41524;35.624;139.698;2023-01-29T16:50:28;101003.00;;;0.52;47.33
53659;BME280;41524;35.624;139.698;2023-01-29T16:55:30;100999.00;;;0.23;46.86
53659;BME280;41524;35.624;139.698;2023-01-29T17:00:22;100997.00;;;0.19;47.05
53659;BME280;41524;35.624;139.698;2023-01-29T17:05:21;100993.00;;;-0.04;47.06
53659;BME280;41524;35.624;139.698;2023-01-29T17:10:18;100985.00;;;0.45;46.19
53659;BME280;41524;35.624;139.698;2023-01-29T17:15:42;100972.00;;;0.21;46.21
53659;BME280;41524;35.624;139.698;2023-01-29T17:20:14;100962.00;;;0.15;45.78
53659;BME280;41524;35.624;139.698;2023-01-29T17:25:14;100964.00;;;0.20;45.93
53659;BME280;41524;35.624;139.698;2023-01-29T17:30:14;100968.00;;;1.04;44.56
53659;BME280;41524;35.624;139.698;2023-01-29T17:35:13;100966.00;;;0.07;45.41
53659;BME280;41524;35.624;139.698;2023-01-29T17:40:19;100976.00;;;0.38;44.84
53659;BME280;41524;35.624;139.698;2023-01-29T17:45:11;100974.00;;;0.24;45.13
53659;BME280;41524;35.624;139.698;2023-01-29T17:50:20;100969.00;;;0.02;45.35
53659;BME280;41524;35.624;139.698;2023-01-29T17:55:12;100972.00;;;-0.33;45.85
53659;BME280;41524;35.624;139.698;2023-01-29T18:00:16;100960.00;;;-0.22;45.54
53659;BME280;41524;35.624;139.698;2023-01-29T18:05:14;100958.00;;;0.08;44.84
53659;BME280;41524;35.624;139.698;2023-01-29T18:10:14;100961.00;;;-0.23;45.44
53659;BME280;41524;35.624;139.698;2023-01-29T18:15:11;100960.00;;;0.02;44.47
53659;BME280;41524;35.624;139.698;2023-01-29T18:20:18;100963.00;;;0.70;43.51
53659;BME280;41524;35.624;139.698;2023-01-29T18:25:11;100968.00;;;0.66;43.06
53659;BME280;41524;35.624;139.698;2023-01-29T18:30:12;100961.00;;;-0.10;44.26
53659;BME280;41524;35.624;139.698;2023-01-29T18:35:11;100961.00;;;0.05;44.35
53659;BME280;41524;35.624;139.698;2023-01-29T18:40:12;100957.00;;;-0.01;44.50
53659;BME280;41524;35.624;139.698;2023-01-29T18:45:11;100949.00;;;0.08;44.13
53659;BME280;41524;35.624;139.698;2023-01-29T18:50:12;100949.00;;;-0.19;44.47
53659;BME280;41524;35.624;139.698;2023-01-29T18:55:11;100958.00;;;0.06;44.57
53659;BME280;41524;35.624;139.698;2023-01-29T19:00:12;100959.00;;;-0.05;44.89
53659;BME280;41524;35.624;139.698;2023-01-29T19:05:11;100954.00;;;-0.66;45.67
53659;BME280;41524;35.624;139.698;2023-01-29T19:10:17;100959.00;;;-1.16;46.68
53659;BME280;41524;35.624;139.698;2023-01-29T19:15:12;100959.00;;;-0.56;45.65
53659;BME280;41524;35.624;139.698;2023-01-29T19:20:12;100963.00;;;0.04;44.68
53659;BME280;41524;35.624;139.698;2023-01-29T19:25:11;100976.00;;;-0.16;44.69
53659;BME280;41524;35.624;139.698;2023-01-29T19:30:11;100984.00;;;-0.90;45.79
53659;BME280;41524;35.624;139.698;2023-01-29T19:35:11;100990.00;;;-0.40;45.65
53659;BME280;41524;35.624;139.698;2023-01-29T19:40:17;100984.00;;;-0.58;45.95
53659;BME280;41524;35.624;139.698;2023-01-29T19:45:10;100990.00;;;-0.48;45.96
53659;BME280;41524;35.624;139.698;2023-01-29T19:50:11;100994.00;;;-0.69;45.94
53659;BME280;41524;35.624;139.698;2023-01-29T19:55:11;100989.00;;;-0.64;45.63
53659;BME280;41524;35.624;139.698;2023-01-29T20:00:13;100982.00;;;-0.06;44.55
53659;BME280;41524;35.624;139.698;2023-01-29T20:05:11;100995.00;;;-1.07;46.74
53659;BME280;41524;35.624;139.698;2023-01-29T20:10:16;100997.00;;;-0.93;46.03
53659;BME280;41524;35.624;139.698;2023-01-29T20:15:13;100998.00;;;-1.04;46.47
53659;BME280;41524;35.624;139.698;2023-01-29T20:20:11;101003.00;;;-1.04;46.59
53659;BME280;41524;35.624;139.698;2023-01-29T20:25:11;101007.00;;;-1.04;46.91
53659;BME280;41524;35.624;139.698;2023-01-29T20:30:17;100999.00;;;0.20;45.04
53659;BME280;41524;35.624;139.698;2023-01-29T20:35:11;101006.00;;;-0.72;46.23
53659;BME280;41524;35.624;139.698;2023-01-29T20:40:12;101008.00;;;-1.25;47.19
53659;BME280;41524;35.624;139.698;2023-01-29T20:45:11;101009.00;;;-0.92;46.66
53659;BME280;41524;35.624;139.698;2023-01-29T20:50:13;101002.00;;;-0.51;46.02
53659;BME280;41524;35.624;139.698;2023-01-29T20:55:18;101008.00;;;-1.18;47.07
53659;BME280;41524;35.624;139.698;2023-01-29T21:05:12;101006.00;;;-0.94;46.85
53659;BME280;41524;35.624;139.698;2023-01-29T21:10:13;101013.00;;;-0.94;47.00
53659;BME280;41524;35.624;139.698;2023-01-29T21:15:11;101015.00;;;-0.91;46.80
53659;BME280;41524;35.624;139.698;2023-01-29T21:20:16;101023.00;;;0.26;45.28
53659;BME280;41524;35.624;139.698;2023-01-29T21:25:17;101021.00;;;-0.70;45.73
53659;BME280;41524;35.624;139.698;2023-01-29T21:30:12;101041.00;;;-0.56;46.19
53659;BME280;41524;35.624;139.698;2023-01-29T21:35:16;101044.00;;;0.79;43.91
53659;BME280;41524;35.624;139.698;2023-01-29T21:40:11;101054.00;;;-1.02;46.67
53659;BME280;41524;35.624;139.698;2023-01-29T21:45:12;101052.00;;;-0.31;45.29
53659;BME280;41524;35.624;139.698;2023-01-29T21:50:13;101055.00;;;0.10;44.35
53659;BME280;41524;35.624;139.698;2023-01-29T21:55:16;101052.00;;;-0.16;44.12
53659;BME280;41524;35.624;139.698;2023-01-29T22:00:12;101059.00;;;-0.69;44.77
53659;BME280;41524;35.624;139.698;2023-01-29T22:05:10;101066.00;;;0.70;43.36
53659;BME280;41524;35.624;139.698;2023-01-29T22:10:12;101078.00;;;-0.05;48.36
53659;BME280;41524;35.624;139.698;2023-01-29T22:15:12;101081.00;;;-0.15;44.13
53659;BME280;41524;35.624;139.698;2023-01-29T22:20:12;101074.00;;;-0.15;44.79
53659;BME280;41524;35.624;139.698;2023-01-29T22:25:13;101080.00;;;-0.46;44.66
53659;BME280;41524;35.624;139.698;2023-01-29T22:30:12;101087.00;;;-0.11;45.44
53659;BME280;41524;35.624;139.698;2023-01-29T22:35:20;101091.00;;;0.96;44.52
53659;BME280;41524;35.624;139.698;2023-01-29T22:40:12;101093.00;;;0.68;42.55
53659;BME280;41524;35.624;139.698;2023-01-29T22:45:11;101102.00;;;0.73;42.88
53659;BME280;41524;35.624;139.698;2023-01-29T22:50:13;101104.00;;;0.14;42.56
53659;BME280;41524;35.624;139.698;2023-01-29T22:55:11;101108.00;;;1.36;41.07
53659;BME280;41524;35.624;139.698;2023-01-29T23:00:16;101114.00;;;0.43;41.74
53659;BME280;41524;35.624;139.698;2023-01-29T23:05:17;101117.00;;;2.09;40.44
53659;BME280;41524;35.624;139.698;2023-01-29T23:10:16;101113.00;;;1.60;41.08
53659;BME280;41524;35.624;139.698;2023-01-29T23:15:12;101119.00;;;6.23;33.61
53659;BME280;41524;35.624;139.698;2023-01-29T23:20:16;101120.00;;;8.24;30.52
53659;BME280;41524;35.624;139.698;2023-01-29T23:25:12;101121.00;;;7.77;30.17
53659;BME280;41524;35.624;139.698;2023-01-29T23:30:11;101118.00;;;8.24;29.24
53659;BME280;41524;35.624;139.698;2023-01-29T23:35:13;101113.00;;;12.02;24.89
53659;BME280;41524;35.624;139.698;2023-01-29T23:40:14;101112.00;;;13.35;23.19
53659;BME280;41524;35.624;139.698;2023-01-29T23:45:11;101114.00;;;12.02;23.80
53659;BME280;41524;35.624;139.698;2023-01-29T23:50:12;101102.00;;;15.88;21.04
53659;BME280;41524;35.624;139.698;2023-01-29T23:55:11;101100.00;;;14.08;21.78
